Time;durP1;ratioP1;P1;durP2;ratioP2;P2;SDS_P1;SDS_P2;PMS_P1;PMS_P2;Temp;Humidity;BMP_temperature;BMP_pressure;BME280_temperature;BME280_humidity;BME280_pressure;Samples;Min_cycle;Max_cycle;Signal;HPM_P1;HPM_P2
2022/08/04 00:01:21;;;;;;;3.03;1.23;;;29.00;96.70;;;;;;4989031;28;20069;-80
2022/08/04 00:03:58;;;;;;;4.75;1.13;;;28.80;96.70;;;;;;4980277;28;20046;-80
2022/08/04 00:06:46;;;;;;;3.25;1.30;;;28.80;96.70;;;;;;4985507;28;20046;-80
2022/08/04 00:09:28;;;;;;;2.83;1.13;;;28.80;96.70;;;;;;4962441;28;20064;-80
2022/08/04 00:12:00;;;;;;;3.03;1.63;;;28.70;96.70;;;;;;4984273;28;20181;-80
2022/08/04 00:14:33;;;;;;;3.85;1.23;;;28.80;96.70;;;;;;4984356;28;20509;-81
2022/08/04 00:17:05;;;;;;;2.67;1.00;;;28.80;96.70;;;;;;4982083;28;20130;-81
2022/08/04 00:19:40;;;;;;;4.22;1.60;;;28.80;96.70;;;;;;4968857;28;20050;-80
2022/08/04 00:22:09;;;;;;;3.13;1.33;;;28.80;96.70;;;;;;4978599;28;20050;-81
2022/08/04 00:24:38;;;;;;;3.78;1.45;;;28.80;96.70;;;;;;4981018;28;20078;-80
2022/08/04 00:27:07;;;;;;;2.35;1.35;;;28.70;96.70;;;;;;4979369;28;20043;-80
2022/08/04 00:29:38;;;;;;;3.15;1.38;;;28.80;96.70;;;;;;4987290;28;20050;-80
2022/08/04 00:32:06;;;;;;;3.70;1.50;;;28.80;96.70;;;;;;4983968;28;20054;-80
2022/08/04 00:34:36;;;;;;;2.25;1.00;;;28.80;96.70;;;;;;4969086;28;20061;-80
2022/08/04 00:37:05;;;;;;;3.10;1.50;;;28.50;96.70;;;;;;4983158;28;20447;-80
2022/08/04 00:39:33;;;;;;;2.42;1.50;;;28.40;96.70;;;;;;4984865;28;20043;-81
2022/08/04 00:42:17;;;;;;;3.65;1.52;;;28.40;96.70;;;;;;4985594;28;20125;-81
2022/08/04 00:44:59;;;;;;;4.22;1.25;;;28.20;96.70;;;;;;4982374;28;20058;-80
2022/08/04 00:47:43;;;;;;;3.28;1.50;;;28.10;96.70;;;;;;4965069;28;20406;-81
2022/08/04 00:50:23;;;;;;;2.55;1.20;;;28.00;96.70;;;;;;4985258;28;20142;-80
2022/08/04 00:53:05;;;;;;;1.35;1.25;;;28.00;96.70;;;;;;4969436;28;20622;-80
2022/08/04 00:55:55;;;;;;;2.70;1.30;;;27.90;96.70;;;;;;4982406;28;20081;-81
2022/08/04 00:58:35;;;;;;;1.63;1.40;;;27.90;96.70;;;;;;4990018;28;20053;-80
2022/08/04 01:01:05;;;;;;;3.72;0.93;;;27.90;96.70;;;;;;4983969;28;20500;-80
2022/08/04 01:03:50;;;;;;;6.80;1.42;;;27.90;96.70;;;;;;4967921;28;20050;-80
2022/08/04 01:06:33;;;;;;;1.60;1.10;;;27.90;96.70;;;;;;4958189;28;20472;-80
2022/08/04 01:09:16;;;;;;;2.58;0.98;;;28.00;96.70;;;;;;4982431;28;20438;-80
2022/08/04 01:12:21;;;;;;;4.18;1.05;;;27.90;96.70;;;;;;4966577;28;20132;-80
2022/08/04 01:15:02;;;;;;;2.65;1.02;;;27.80;96.70;;;;;;4951762;28;20142;-80
2022/08/04 01:17:48;;;;;;;4.10;1.25;;;27.70;96.70;;;;;;4964360;28;20050;-80
2022/08/04 01:20:20;;;;;;;1.75;1.10;;;27.70;96.70;;;;;;4983603;28;20456;-80
2022/08/04 01:23:26;;;;;;;3.08;1.30;;;27.70;96.70;;;;;;4966102;28;20120;-80
2022/08/04 01:26:29;;;;;;;5.05;1.10;;;27.60;96.70;;;;;;4957760;28;20161;-79
2022/08/04 01:29:21;;;;;;;3.17;1.45;;;27.60;96.70;;;;;;4976989;28;20074;-80
2022/08/04 01:32:01;;;;;;;5.13;1.80;;;27.60;96.70;;;;;;4968437;28;20047;-83
2022/08/04 01:34:34;;;;;;;2.60;1.17;;;27.70;96.70;;;;;;4983133;28;20047;-83
2022/08/04 01:37:22;;;;;;;2.90;1.20;;;27.70;96.70;;;;;;4974066;28;20051;-83
2022/08/04 01:39:59;;;;;;;8.02;1.50;;;27.50;96.70;;;;;;4981486;28;20070;-82
2022/08/04 01:42:30;;;;;;;5.10;1.30;;;27.50;96.70;;;;;;4982672;28;20043;-82
2022/08/04 01:45:04;;;;;;;2.33;1.05;;;27.40;96.70;;;;;;4977907;28;20051;-80
2022/08/04 01:47:35;;;;;;;6.10;1.55;;;27.40;96.70;;;;;;4967881;28;20061;-80
2022/08/04 01:50:05;;;;;;;2.05;1.25;;;27.30;96.70;;;;;;4966761;28;20058;-79
2022/08/04 01:52:36;;;;;;;4.32;1.50;;;27.30;96.70;;;;;;4976944;28;20132;-79
2022/08/04 01:55:08;;;;;;;2.08;1.10;;;27.30;96.70;;;;;;4961106;28;20117;-82
2022/08/04 01:57:40;;;;;;;2.35;1.60;;;27.50;96.70;;;;;;4982773;28;20493;-80
2022/08/04 02:00:12;;;;;;;1.30;1.20;;;27.30;96.70;;;;;;4965957;28;20558;-82
2022/08/04 02:02:41;;;;;;;2.30;1.02;;;27.20;96.70;;;;;;4968014;28;20122;-82
2022/08/04 02:05:10;;;;;;;5.53;1.40;;;27.10;96.70;;;;;;4979713;28;20065;-82
2022/08/04 02:08:02;;;;;;;4.13;1.20;;;27.10;96.70;;;;;;4966549;28;20043;-80
2022/08/04 02:10:45;;;;;;;4.00;1.20;;;27.10;96.70;;;;;;4982840;28;20082;-81
2022/08/04 02:13:20;;;;;;;2.80;1.27;;;27.10;96.70;;;;;;4960409;28;20050;-81
2022/08/04 02:16:00;;;;;;;1.25;1.15;;;26.90;96.70;;;;;;4983572;28;20046;-81
2022/08/04 02:18:32;;;;;;;2.00;1.15;;;26.80;96.70;;;;;;4980702;28;20047;-80
2022/08/04 02:21:01;;;;;;;2.47;0.90;;;26.90;96.70;;;;;;4982999;28;20057;-81
2022/08/04 02:23:37;;;;;;;2.13;1.15;;;26.90;96.70;;;;;;4982239;28;20066;-80
2022/08/04 02:26:10;;;;;;;1.70;1.10;;;26.90;96.70;;;;;;4967835;28;20078;-80
2022/08/04 02:28:55;;;;;;;3.20;1.10;;;26.90;96.70;;;;;;4980439;28;20134;-81
2022/08/04 02:31:30;;;;;;;1.63;0.90;;;26.90;96.70;;;;;;4965229;28;20050;-81
2022/08/04 02:34:05;;;;;;;2.10;1.20;;;26.90;96.70;;;;;;4963789;28;20121;-81
2022/08/04 02:36:37;;;;;;;1.95;1.15;;;26.90;96.70;;;;;;4978162;28;20042;-80
2022/08/04 02:39:06;;;;;;;4.53;1.52;;;26.90;96.70;;;;;;4980360;28;20719;-81
2022/08/04 02:41:36;;;;;;;3.58;1.20;;;26.80;96.70;;;;;;4966726;28;20074;-80
2022/08/04 02:44:06;;;;;;;3.85;1.10;;;26.80;96.70;;;;;;4960697;28;20089;-81
2022/08/04 02:46:37;;;;;;;3.05;1.33;;;26.80;96.70;;;;;;4981259;28;20050;-81
2022/08/04 02:49:08;;;;;;;4.22;1.42;;;26.70;96.70;;;;;;4968152;28;20165;-80
2022/08/04 02:51:40;;;;;;;3.92;1.40;;;26.80;96.70;;;;;;4981576;28;20065;-80
2022/08/04 02:54:08;;;;;;;2.10;1.15;;;26.80;96.70;;;;;;4984491;28;20114;-80
2022/08/04 02:56:38;;;;;;;5.72;1.45;;;26.50;96.70;;;;;;4979049;28;20121;-80
2022/08/04 02:59:08;;;;;;;2.28;1.17;;;26.60;96.70;;;;;;4979526;28;20129;-80
2022/08/04 03:01:39;;;;;;;2.72;1.45;;;26.70;96.70;;;;;;4985048;28;20233;-80
2022/08/04 03:04:50;;;;;;;3.72;1.20;;;26.70;96.70;;;;;;4985129;28;20097;-80
2022/08/04 03:07:56;;;;;;;2.58;1.42;;;26.60;96.70;;;;;;4979962;28;20084;-80
2022/08/04 03:10:51;;;;;;;6.97;1.45;;;26.60;96.70;;;;;;4983003;28;20141;-80
2022/08/04 03:13:59;;;;;;;4.13;1.30;;;26.60;96.70;;;;;;4980546;28;20055;-81
2022/08/04 03:17:03;;;;;;;4.53;1.35;;;26.40;96.70;;;;;;4983109;28;20148;-80
2022/08/04 03:20:04;;;;;;;1.67;1.40;;;26.40;96.70;;;;;;4968562;28;20042;-80
2022/08/04 03:23:17;;;;;;;3.15;1.25;;;26.30;96.70;;;;;;4968611;28;20042;-80
2022/08/04 03:26:07;;;;;;;4.40;1.30;;;26.20;96.70;;;;;;4967335;28;20496;-80
2022/08/04 03:29:09;;;;;;;4.07;1.38;;;26.00;96.70;;;;;;4983613;28;20054;-80
2022/08/04 03:32:24;;;;;;;1.67;1.10;;;26.00;96.70;;;;;;4985569;28;20045;-80
2022/08/04 03:35:14;;;;;;;1.35;1.23;;;25.90;96.70;;;;;;4982345;28;20508;-80
2022/08/04 03:38:10;;;;;;;3.97;1.30;;;26.00;96.70;;;;;;4986480;28;20144;-80
2022/08/04 03:41:12;;;;;;;1.95;1.20;;;26.00;96.70;;;;;;4979338;28;20097;-80
2022/08/04 03:44:11;;;;;;;2.15;1.20;;;25.90;96.70;;;;;;4979664;28;20100;-81
2022/08/04 03:46:53;;;;;;;1.65;1.23;;;25.80;96.70;;;;;;4961429;28;20079;-80
2022/08/04 03:49:59;;;;;;;3.35;1.08;;;25.70;96.70;;;;;;4947118;28;20110;-82
2022/08/04 03:53:08;;;;;;;1.83;1.33;;;25.80;96.70;;;;;;4944420;28;20055;-83
2022/08/04 03:56:33;;;;;;;2.83;1.33;;;25.80;96.70;;;;;;4937229;28;20055;-82
2022/08/04 03:59:35;;;;;;;1.10;1.00;;;25.70;96.70;;;;;;4930117;28;20051;-82
2022/08/04 04:02:41;;;;;;;2.03;1.50;;;25.80;96.70;;;;;;4930891;28;20533;-82
2022/08/04 04:05:33;;;;;;;3.60;1.27;;;25.80;96.70;;;;;;4959353;28;20047;-82
2022/08/04 04:08:49;;;;;;;2.92;1.08;;;25.80;96.70;;;;;;4955447;28;20387;-82
2022/08/04 04:11:33;;;;;;;1.85;1.00;;;25.70;96.70;;;;;;4942947;29;20059;-82
2022/08/04 04:14:43;;;;;;;1.58;1.00;;;25.70;96.70;;;;;;4944728;29;20052;-83
2022/08/04 04:17:48;;;;;;;2.40;1.02;;;25.80;96.70;;;;;;4965938;28;20130;-82
2022/08/04 04:20:46;;;;;;;2.75;1.25;;;25.80;96.70;;;;;;4948868;28;20509;-82
2022/08/04 04:23:40;;;;;;;2.72;1.13;;;25.70;96.70;;;;;;4943899;29;20059;-81
2022/08/04 04:26:36;;;;;;;4.88;1.35;;;25.60;96.70;;;;;;4948883;29;20065;-82
2022/08/04 04:29:26;;;;;;;2.25;1.20;;;25.60;96.70;;;;;;4944825;28;20066;-84
2022/08/04 04:32:09;;;;;;;1.77;1.20;;;25.60;96.70;;;;;;4967175;28;20307;-84
2022/08/04 04:34:56;;;;;;;2.63;1.20;;;25.60;96.70;;;;;;4952318;29;20047;-83
2022/08/04 04:37:51;;;;;;;3.33;1.42;;;25.60;96.70;;;;;;4966945;28;20046;-84
2022/08/04 04:40:32;;;;;;;1.92;1.10;;;25.50;96.70;;;;;;4964412;28;20062;-84
2022/08/04 04:43:33;;;;;;;4.18;1.25;;;25.70;96.70;;;;;;4947627;29;20043;-84
2022/08/04 04:46:36;;;;;;;2.65;1.30;;;25.60;96.70;;;;;;4946809;29;20103;-83
2022/08/04 04:49:19;;;;;;;3.28;1.45;;;25.70;96.70;;;;;;4926020;29;20051;-84
2022/08/04 04:51:54;;;;;;;4.38;2.00;;;25.70;96.70;;;;;;4936575;29;20054;-83
2022/08/04 04:54:31;;;;;;;3.63;1.63;;;25.90;96.70;;;;;;4940252;29;20051;-84
2022/08/04 04:57:09;;;;;;;5.25;1.63;;;26.00;96.70;;;;;;4932368;29;20062;-84
2022/08/04 04:59:42;;;;;;;3.03;1.55;;;26.10;96.70;;;;;;4942155;29;20055;-84
2022/08/04 05:02:49;;;;;;;7.45;1.83;;;25.90;96.70;;;;;;4943635;28;20054;-85
2022/08/04 05:06:02;;;;;;;4.13;1.60;;;25.90;96.70;;;;;;4949954;29;20074;-84
2022/08/04 05:08:57;;;;;;;4.53;1.80;;;26.00;96.70;;;;;;4910907;29;20050;-84
2022/08/04 05:11:53;;;;;;;4.13;1.80;;;26.10;96.70;;;;;;4943386;29;20059;-84
2022/08/04 05:14:28;;;;;;;6.13;1.67;;;26.00;96.70;;;;;;4919891;28;20194;-88
2022/08/04 05:17:14;;;;;;;3.95;1.70;;;26.00;96.70;;;;;;4948701;29;20150;-81
2022/08/04 05:19:52;;;;;;;4.85;1.70;;;26.00;96.70;;;;;;4944562;28;20043;-81
2022/08/04 05:22:27;;;;;;;2.85;1.42;;;26.00;96.70;;;;;;4943013;29;20047;-79
2022/08/04 05:25:04;;;;;;;4.07;1.55;;;26.10;96.70;;;;;;4945861;28;20501;-78
2022/08/04 05:27:39;;;;;;;9.43;1.80;;;26.30;96.70;;;;;;4961176;28;20051;-78
2022/08/04 05:30:09;;;;;;;4.93;1.60;;;26.20;96.70;;;;;;4959485;28;20142;-78
2022/08/04 05:32:44;;;;;;;4.70;1.80;;;26.20;96.70;;;;;;4938976;28;20413;-79
2022/08/04 05:35:19;;;;;;;7.57;2.22;;;26.50;96.70;;;;;;4942263;28;20039;-79
2022/08/04 05:38:10;;;;;;;4.20;1.98;;;26.70;96.70;;;;;;4963971;28;20709;-79
2022/08/04 05:40:42;;;;;;;4.57;2.25;;;26.70;96.70;;;;;;4943373;29;20082;-79
2022/08/04 05:43:12;;;;;;;7.00;2.67;;;26.50;96.70;;;;;;4949485;28;20164;-78
2022/08/04 05:45:42;;;;;;;5.45;2.33;;;26.30;96.70;;;;;;4975440;28;20477;-79
2022/08/04 05:48:10;;;;;;;21.08;3.78;;;26.40;96.70;;;;;;4989545;28;20084;-80
2022/08/04 05:50:39;;;;;;;14.82;3.97;;;26.50;96.70;;;;;;4982295;28;20571;-81
2022/08/04 05:53:09;;;;;;;5.90;2.72;;;26.50;96.70;;;;;;4988850;28;20194;-86
2022/08/04 05:55:37;;;;;;;6.90;2.90;;;26.60;96.70;;;;;;4990020;28;20057;-86
2022/08/04 05:58:29;;;;;;;5.75;2.30;;;26.60;96.70;;;;;;4990071;28;20050;-84
2022/08/04 06:00:59;;;;;;;4.28;1.92;;;26.60;96.70;;;;;;4988896;28;20054;-82
2022/08/04 06:03:44;;;;;;;3.28;1.73;;;26.50;96.70;;;;;;4974498;28;20042;-88
2022/08/04 06:06:14;;;;;;;2.95;1.58;;;26.50;96.70;;;;;;4990847;28;20474;-84
2022/08/04 06:08:42;;;;;;;3.90;1.42;;;26.50;96.70;;;;;;4978129;28;20042;-84
2022/08/04 06:11:12;;;;;;;7.38;1.88;;;26.40;96.70;;;;;;4990104;28;20116;-84
2022/08/04 06:13:46;;;;;;;5.22;1.60;;;26.40;96.70;;;;;;4988434;28;20074;-83
2022/08/04 06:16:21;;;;;;;3.05;1.58;;;26.40;96.70;;;;;;4989918;28;20057;-84
2022/08/04 06:19:02;;;;;;;3.90;1.83;;;26.50;96.70;;;;;;4987297;28;20393;-84
2022/08/04 06:21:54;;;;;;;4.53;1.83;;;26.70;96.70;;;;;;4986072;28;20054;-80
2022/08/04 06:24:27;;;;;;;4.78;1.50;;;26.70;96.70;;;;;;4984224;28;20047;-82
2022/08/04 06:26:56;;;;;;;4.13;1.30;;;26.80;96.70;;;;;;4986520;28;20050;-83
2022/08/04 06:29:39;;;;;;;2.65;1.40;;;26.80;96.70;;;;;;4964405;28;20046;-82
2022/08/04 06:32:25;;;;;;;6.43;1.75;;;26.90;96.70;;;;;;4968288;28;20078;-83
2022/08/04 06:35:06;;;;;;;4.03;1.90;;;27.00;96.70;;;;;;4980336;28;20160;-82
2022/08/04 06:37:36;;;;;;;5.75;1.77;;;27.10;96.70;;;;;;4984782;28;20125;-82
2022/08/04 06:40:13;;;;;;;3.22;1.50;;;27.30;96.70;;;;;;4983790;28;20053;-80
2022/08/04 06:43:00;;;;;;;5.28;1.80;;;27.40;96.70;;;;;;4981876;28;20054;-82
2022/08/04 06:45:33;;;;;;;4.78;1.70;;;27.50;96.70;;;;;;4982512;28;20414;-81
2022/08/04 06:48:03;;;;;;;5.72;1.85;;;27.50;96.70;;;;;;4981634;28;20054;-81
2022/08/04 06:50:33;;;;;;;3.45;1.42;;;27.60;96.70;;;;;;4966694;28;20146;-79
2022/08/04 06:53:21;;;;;;;4.32;1.73;;;27.80;96.70;;;;;;4965773;28;20070;-82
2022/08/04 06:55:50;;;;;;;4.85;1.73;;;27.70;96.70;;;;;;4980164;28;20058;-82
2022/08/04 06:58:20;;;;;;;3.35;1.40;;;27.80;96.70;;;;;;4967771;28;20514;-79
2022/08/04 07:00:50;;;;;;;5.28;1.42;;;27.70;96.70;;;;;;4979188;28;20074;-80
2022/08/04 07:03:20;;;;;;;3.05;1.40;;;27.80;96.70;;;;;;4981911;28;20642;-81
2022/08/04 07:05:50;;;;;;;3.97;1.33;;;28.00;96.70;;;;;;4964408;28;20070;-79
2022/08/04 07:08:18;;;;;;;5.40;1.52;;;28.10;96.70;;;;;;4966023;28;20125;-80
2022/08/04 07:10:47;;;;;;;4.55;1.52;;;28.20;96.70;;;;;;4980235;28;20114;-80
2022/08/04 07:13:17;;;;;;;2.92;1.30;;;28.30;96.70;;;;;;4982045;28;20133;-80
2022/08/04 07:15:46;;;;;;;1.33;1.05;;;28.30;96.70;;;;;;4982418;28;20137;-83
2022/08/04 07:18:16;;;;;;;3.63;1.40;;;28.40;96.70;;;;;;4982526;28;20842;-82
2022/08/04 07:20:45;;;;;;;1.70;1.10;;;28.50;96.70;;;;;;4981873;28;20058;-82
2022/08/04 07:23:18;;;;;;;3.65;0.90;;;28.60;96.70;;;;;;4980269;28;20062;-83
2022/08/04 07:25:51;;;;;;;4.45;1.00;;;28.70;96.70;;;;;;4966295;28;20233;-82
2022/08/04 07:28:40;;;;;;;1.60;0.93;;;28.80;96.70;;;;;;4961282;28;20126;-79
2022/08/04 07:31:10;;;;;;;4.63;1.02;;;28.90;96.70;;;;;;4972560;28;20413;-80
2022/08/04 07:34:01;;;;;;;3.30;0.93;;;29.00;96.70;;;;;;4976930;28;20051;-83
2022/08/04 07:36:49;;;;;;;3.72;1.13;;;29.10;96.70;;;;;;4981880;28;20105;-81
2022/08/04 07:39:24;;;;;;;1.05;0.95;;;29.10;96.70;;;;;;4978330;28;20043;-79
2022/08/04 07:41:58;;;;;;;1.40;0.90;;;29.10;96.70;;;;;;4978269;28;20046;-79
2022/08/04 07:44:29;;;;;;;2.45;1.10;;;29.20;96.70;;;;;;4975436;28;20059;-80
2022/08/04 07:46:58;;;;;;;1.88;1.08;;;29.20;96.70;;;;;;4957877;28;20480;-82
2022/08/04 07:49:28;;;;;;;4.55;1.30;;;29.20;96.50;;;;;;4949151;28;20422;-77
2022/08/04 07:52:17;;;;;;;2.35;1.20;;;29.30;96.70;;;;;;4951095;28;20097;-81
2022/08/04 07:54:46;;;;;;;4.25;1.00;;;29.40;96.20;;;;;;4948150;28;20050;-82
2022/08/04 07:57:17;;;;;;;3.55;1.00;;;29.50;96.20;;;;;;4966540;28;20062;-81
2022/08/04 08:00:07;;;;;;;3.22;0.93;;;29.60;94.90;;;;;;4948604;28;20445;-82
2022/08/04 08:02:38;;;;;;;3.28;0.88;;;29.70;94.70;;;;;;4960905;28;20110;-82
2022/08/04 08:05:11;;;;;;;1.88;1.08;;;29.80;94.70;;;;;;4948435;28;20051;-82
2022/08/04 08:07:39;;;;;;;4.28;1.33;;;29.80;94.70;;;;;;4957016;28;20489;-83
2022/08/04 08:10:21;;;;;;;3.85;0.90;;;29.70;94.60;;;;;;4969150;28;20047;-84
2022/08/04 08:12:51;;;;;;;1.35;0.90;;;29.80;93.50;;;;;;4980318;28;20047;-84
2022/08/04 08:15:20;;;;;;;6.60;1.02;;;29.90;93.50;;;;;;4963805;28;20086;-82
2022/08/04 08:17:48;;;;;;;1.88;0.90;;;30.00;92.90;;;;;;4974620;28;20043;-83
2022/08/04 08:20:30;;;;;;;4.40;1.10;;;30.00;93.30;;;;;;4966184;28;20051;-80
2022/08/04 08:23:01;;;;;;;2.60;1.00;;;30.00;93.10;;;;;;4949654;28;20129;-80
2022/08/04 08:25:30;;;;;;;5.50;1.08;;;30.20;92.80;;;;;;4970485;28;20051;-80
2022/08/04 08:27:58;;;;;;;3.85;1.13;;;30.20;93.00;;;;;;4951844;28;20050;-82
2022/08/04 08:30:26;;;;;;;2.33;1.10;;;30.30;92.70;;;;;;4951555;28;20118;-84
2022/08/04 08:33:05;;;;;;;1.67;0.80;;;30.50;92.90;;;;;;4960103;28;20607;-84
2022/08/04 08:35:50;;;;;;;2.42;1.08;;;30.50;92.40;;;;;;4978321;28;20134;-84
2022/08/04 08:38:43;;;;;;;3.22;1.10;;;30.50;92.20;;;;;;4958687;28;20051;-84
2022/08/04 08:41:44;;;;;;;1.77;0.82;;;30.60;91.70;;;;;;4970936;28;20125;-84
2022/08/04 08:44:49;;;;;;;1.15;0.90;;;30.70;91.50;;;;;;4961101;28;20053;-84
2022/08/04 08:47:38;;;;;;;2.83;1.05;;;30.90;90.50;;;;;;4987916;28;20276;-83
2022/08/04 08:51:01;;;;;;;3.03;0.95;;;31.00;90.50;;;;;;4985764;28;20046;-82
2022/08/04 08:53:50;;;;;;;5.22;0.90;;;31.10;90.10;;;;;;4989911;28;20069;-83
2022/08/04 08:56:30;;;;;;;3.13;1.27;;;31.00;89.30;;;;;;4990039;28;20042;-83
2022/08/04 08:59:22;;;;;;;3.28;1.00;;;31.10;89.00;;;;;;4983668;28;20046;-80
2022/08/04 09:02:02;;;;;;;1.75;0.70;;;31.30;88.60;;;;;;4983708;28;20058;-80
2022/08/04 09:05:06;;;;;;;4.45;1.17;;;31.50;87.80;;;;;;4987155;28;20452;-81
2022/08/04 09:08:00;;;;;;;4.45;1.25;;;31.70;88.00;;;;;;4985483;28;20137;-83
2022/08/04 09:10:37;;;;;;;3.58;1.25;;;31.80;87.60;;;;;;4980617;28;20125;-79
2022/08/04 09:13:12;;;;;;;4.75;1.20;;;31.90;87.10;;;;;;4985586;28;20038;-79
2022/08/04 09:15:46;;;;;;;4.07;1.10;;;32.00;86.70;;;;;;4968489;28;20471;-77
2022/08/04 09:18:25;;;;;;;2.05;1.08;;;32.20;85.90;;;;;;4984783;28;20105;-81
2022/08/04 09:20:59;;;;;;;3.00;1.25;;;32.30;85.10;;;;;;4981837;28;20043;-81
2022/08/04 09:23:39;;;;;;;3.92;1.20;;;32.30;85.40;;;;;;4986973;28;20555;-81
2022/08/04 09:26:19;;;;;;;3.63;1.27;;;32.10;86.40;;;;;;4980371;28;20061;-78
2022/08/04 09:28:53;;;;;;;1.75;0.90;;;32.30;85.70;;;;;;4988830;28;20042;-81
2022/08/04 09:31:29;;;;;;;2.40;1.05;;;32.50;85.60;;;;;;4983329;28;20504;-81
2022/08/04 09:34:26;;;;;;;1.48;1.00;;;32.60;84.90;;;;;;4973976;28;20054;-82
2022/08/04 09:37:03;;;;;;;2.70;1.27;;;32.70;84.50;;;;;;4988119;28;20468;-81
2022/08/04 09:39:45;;;;;;;3.60;1.08;;;32.70;84.20;;;;;;4985711;28;20039;-81
2022/08/04 09:42:40;;;;;;;1.80;1.02;;;32.60;84.40;;;;;;4970474;28;20081;-81
2022/08/04 09:45:16;;;;;;;2.25;0.90;;;32.70;84.10;;;;;;4983699;28;20078;-82
2022/08/04 09:48:04;;;;;;;4.18;1.08;;;32.70;82.40;;;;;;4968083;28;20054;-82
2022/08/04 09:50:36;;;;;;;2.10;0.82;;;32.90;81.90;;;;;;4984759;28;20054;-82
2022/08/04 09:53:28;;;;;;;1.83;1.13;;;33.00;82.00;;;;;;4984072;28;20050;-81
2022/08/04 09:56:07;;;;;;;4.05;0.80;;;33.10;81.90;;;;;;4983709;28;20053;-82
2022/08/04 09:58:52;;;;;;;2.13;0.90;;;33.10;81.40;;;;;;4983011;28;20476;-81
2022/08/04 10:01:24;;;;;;;1.63;0.98;;;33.30;81.40;;;;;;4969310;28;20125;-81
2022/08/04 10:03:58;;;;;;;2.90;0.90;;;33.50;81.80;;;;;;4981357;28;20046;-77
2022/08/04 10:07:03;;;;;;;3.10;0.90;;;33.70;80.40;;;;;;4980789;28;20131;-78
2022/08/04 10:09:46;;;;;;;1.40;0.60;;;33.60;79.50;;;;;;4925004;29;20063;-80
2022/08/04 10:12:36;;;;;;;1.40;0.70;;;33.70;79.30;;;;;;4963591;28;20433;-82
2022/08/04 10:15:13;;;;;;;1.73;0.80;;;33.80;78.40;;;;;;4959543;28;20113;-81
2022/08/04 10:17:59;;;;;;;1.95;0.70;;;33.80;78.20;;;;;;4979442;28;20054;-81
2022/08/04 10:20:47;;;;;;;1.90;0.60;;;33.90;78.30;;;;;;4981314;28;20047;-81
2022/08/04 10:23:33;;;;;;;2.20;0.70;;;33.90;78.30;;;;;;4970350;28;20050;-82
2022/08/04 10:26:32;;;;;;;2.25;0.73;;;34.40;77.70;;;;;;4980517;28;20046;-81
2022/08/04 10:29:05;;;;;;;1.38;0.65;;;34.50;77.00;;;;;;4983791;28;20134;-82
2022/08/04 10:31:38;;;;;;;1.42;0.70;;;34.80;75.70;;;;;;4983474;28;20571;-82
2022/08/04 10:34:11;;;;;;;0.80;0.60;;;34.90;75.10;;;;;;4981712;28;20433;-82
2022/08/04 10:36:47;;;;;;;1.75;1.00;;;35.10;76.20;;;;;;4968545;28;20081;-82
2022/08/04 10:39:24;;;;;;;0.82;0.80;;;35.40;76.60;;;;;;4965153;28;20555;-83
2022/08/04 10:42:19;;;;;;;0.80;0.75;;;35.30;75.40;;;;;;4964641;28;20057;-82
2022/08/04 10:44:59;;;;;;;0.75;0.65;;;35.10;76.00;;;;;;4975270;28;20077;-82
2022/08/04 10:47:37;;;;;;;2.05;0.70;;;34.90;75.90;;;;;;4962891;28;20043;-82
2022/08/04 10:50:09;;;;;;;4.75;1.00;;;34.70;75.90;;;;;;4956911;28;20051;-82
2022/08/04 10:52:43;;;;;;;1.20;0.70;;;34.80;76.80;;;;;;4962384;28;20151;-82
2022/08/04 10:55:16;;;;;;;1.13;0.70;;;35.00;76.40;;;;;;4963745;28;20051;-82
2022/08/04 10:57:50;;;;;;;2.15;0.63;;;35.00;75.90;;;;;;4962723;28;20053;-82
2022/08/04 11:00:23;;;;;;;4.07;0.95;;;35.10;76.50;;;;;;4949533;29;20043;-82
2022/08/04 11:02:57;;;;;;;2.88;0.90;;;35.30;75.70;;;;;;4946936;29;20141;-82
2022/08/04 11:05:30;;;;;;;1.10;0.80;;;35.70;75.40;;;;;;4964113;28;20085;-82
2022/08/04 11:08:02;;;;;;;2.03;1.00;;;35.70;75.20;;;;;;4945836;28;20070;-82
2022/08/04 11:10:46;;;;;;;1.35;0.75;;;35.90;74.80;;;;;;4962248;28;20054;-82
2022/08/04 11:13:16;;;;;;;1.73;0.90;;;36.10;75.20;;;;;;4961708;28;20054;-82
2022/08/04 11:16:04;;;;;;;1.38;0.90;;;36.40;75.50;;;;;;4939425;29;20126;-82
2022/08/04 11:18:38;;;;;;;1.37;0.90;;;36.60;74.50;;;;;;4948078;28;20572;-82
2022/08/04 11:21:14;;;;;;;1.83;0.90;;;36.90;74.30;;;;;;4947351;28;20319;-82
2022/08/04 11:23:52;;;;;;;1.60;0.80;;;36.90;73.60;;;;;;4946278;29;20126;-82
2022/08/04 11:26:28;;;;;;;1.40;1.20;;;36.80;73.90;;;;;;4963132;28;20146;-82
2022/08/04 11:29:04;;;;;;;3.75;1.00;;;36.90;73.90;;;;;;4948183;29;20047;-81
2022/08/04 11:31:39;;;;;;;1.67;0.90;;;37.00;74.30;;;;;;4953906;28;20051;-81
2022/08/04 11:34:18;;;;;;;3.97;1.02;;;37.10;73.20;;;;;;4946289;28;20055;-81
2022/08/04 11:36:51;;;;;;;1.42;1.02;;;37.00;72.20;;;;;;4963165;28;20051;-82
2022/08/04 11:39:28;;;;;;;0.95;0.90;;;36.80;74.10;;;;;;4947124;29;20051;-80
2022/08/04 11:42:07;;;;;;;1.05;0.95;;;36.60;74.00;;;;;;4958068;28;20142;-80
2022/08/04 11:44:43;;;;;;;2.25;1.00;;;36.50;73.90;;;;;;4964881;28;20421;-78
2022/08/04 11:47:23;;;;;;;1.15;1.00;;;36.50;74.70;;;;;;4967595;28;20074;-80
2022/08/04 11:49:56;;;;;;;0.90;0.88;;;36.70;74.30;;;;;;4963407;28;20039;-80
2022/08/04 11:52:27;;;;;;;1.77;1.10;;;36.50;74.00;;;;;;4960288;28;20046;-80
2022/08/04 11:54:57;;;;;;;1.95;1.30;;;36.10;74.10;;;;;;4979788;28;20141;-83
2022/08/04 11:57:25;;;;;;;2.55;1.00;;;36.00;74.20;;;;;;4981256;28;20039;-78
2022/08/04 12:00:08;;;;;;;3.17;1.40;;;36.30;74.20;;;;;;4959846;28;20083;-80
2022/08/04 12:03:06;;;;;;;1.25;1.10;;;36.50;74.00;;;;;;4950190;28;20066;-82
2022/08/04 12:05:40;;;;;;;0.90;0.90;;;36.70;73.30;;;;;;4968339;28;20417;-83
2022/08/04 12:08:25;;;;;;;3.05;1.02;;;36.90;73.20;;;;;;4976920;28;20062;-82
2022/08/04 12:11:01;;;;;;;1.25;1.10;;;37.30;73.70;;;;;;4975235;28;20052;-82
2022/08/04 12:13:39;;;;;;;1.88;0.80;;;37.60;73.50;;;;;;4976742;28;20043;-82
2022/08/04 12:16:15;;;;;;;1.10;0.93;;;37.90;73.10;;;;;;4966574;28;20138;-81
2022/08/04 12:18:51;;;;;;;1.77;0.98;;;38.20;72.50;;;;;;4973328;28;20090;-82
2022/08/04 12:21:28;;;;;;;2.22;1.02;;;38.30;72.80;;;;;;4982335;28;20061;-82
2022/08/04 12:24:01;;;;;;;1.75;1.13;;;38.30;72.50;;;;;;4961220;28;20054;-82
2022/08/04 12:26:35;;;;;;;1.10;1.00;;;38.10;70.90;;;;;;4981959;28;20825;-81
2022/08/04 12:29:06;;;;;;;1.73;1.23;;;38.00;72.00;;;;;;4958273;28;20047;-82
2022/08/04 12:31:44;;;;;;;1.40;0.95;;;38.00;72.30;;;;;;4964457;28;20038;-82
2022/08/04 12:34:19;;;;;;;1.90;1.10;;;37.70;72.10;;;;;;4964211;28;20039;-82
2022/08/04 12:36:54;;;;;;;1.30;0.90;;;37.60;72.90;;;;;;4975404;28;20054;-82
2022/08/04 12:39:26;;;;;;;2.03;0.93;;;38.10;72.40;;;;;;4984096;28;20050;-81
2022/08/04 12:42:01;;;;;;;1.38;0.93;;;38.30;71.50;;;;;;4984689;28;20477;-81
2022/08/04 12:44:36;;;;;;;2.25;0.88;;;38.40;71.80;;;;;;4979885;28;20477;-82
2022/08/04 12:47:07;;;;;;;;;;;38.40;71.10;;;;;;4948705;28;20049;-82
2022/08/04 12:50:03;;;;;;;1.67;0.73;;;38.50;71.60;;;;;;4950471;28;20392;-81
2022/08/04 12:52:39;;;;;;;1.10;1.00;;;38.70;70.50;;;;;;4942162;28;20048;-82
2022/08/04 12:55:29;;;;;;;0.93;0.85;;;38.80;70.30;;;;;;4951557;28;20046;-82
2022/08/04 12:57:59;;;;;;;2.05;1.02;;;38.70;70.00;;;;;;4949551;28;20054;-82
2022/08/04 13:00:31;;;;;;;1.05;0.85;;;38.60;70.40;;;;;;4949573;29;20055;-82
2022/08/04 13:03:10;;;;;;;1.13;1.00;;;38.60;70.10;;;;;;4951407;28;20098;-81
2022/08/04 13:05:41;;;;;;;3.08;1.15;;;38.60;70.50;;;;;;4965456;28;20195;-82
2022/08/04 13:08:11;;;;;;;0.93;0.88;;;38.50;70.80;;;;;;4967805;28;20055;-82
2022/08/04 13:10:41;;;;;;;1.77;1.38;;;38.60;70.10;;;;;;4949368;28;20047;-81
2022/08/04 13:13:16;;;;;;;4.15;1.20;;;38.60;70.90;;;;;;4959012;28;20052;-82
2022/08/04 13:15:54;;;;;;;1.20;1.10;;;38.70;70.50;;;;;;4958810;28;20051;-81
2022/08/04 13:18:26;;;;;;;1.67;1.20;;;38.70;69.90;;;;;;4944006;29;20067;-82
2022/08/04 13:21:12;;;;;;;2.73;1.20;;;38.70;69.70;;;;;;4963493;28;20043;-81
2022/08/04 13:23:50;;;;;;;2.30;1.00;;;38.90;70.30;;;;;;4961646;28;20059;-82
2022/08/04 13:26:49;;;;;;;1.45;1.17;;;39.00;69.90;;;;;;4945155;29;20066;-82
2022/08/04 13:29:24;;;;;;;3.53;1.30;;;39.20;69.60;;;;;;4964976;28;20066;-82
2022/08/04 13:32:17;;;;;;;3.20;1.38;;;39.10;69.60;;;;;;4935483;28;20603;-82
2022/08/04 13:34:47;;;;;;;3.45;1.10;;;39.30;69.30;;;;;;4963496;28;20420;-82
2022/08/04 13:37:24;;;;;;;2.42;1.58;;;39.60;68.90;;;;;;4959407;28;20404;-82
2022/08/04 13:39:54;;;;;;;2.25;1.15;;;39.80;69.10;;;;;;4949307;29;20043;-82
2022/08/04 13:42:25;;;;;;;1.70;1.23;;;39.70;69.00;;;;;;4964782;28;20094;-82
2022/08/04 13:44:55;;;;;;;1.42;1.20;;;40.00;68.80;;;;;;4970880;28;20058;-82
2022/08/04 13:47:27;;;;;;;3.10;1.08;;;40.10;68.30;;;;;;4968624;28;20081;-82
2022/08/04 13:50:19;;;;;;;1.23;1.13;;;39.90;68.40;;;;;;4977737;28;20401;-82
2022/08/04 13:52:52;;;;;;;3.30;1.20;;;40.10;68.80;;;;;;4968068;28;20062;-81
2022/08/04 13:55:26;;;;;;;2.38;1.10;;;40.00;68.10;;;;;;4982878;28;20046;-82